Time;durP1;ratioP1;P1;durP2;ratioP2;P2;SDS_P1;SDS_P2;PMS_P1;PMS_P2;Temp;Humidity;BMP_temperature;BMP_pressure;BME280_temperature;BME280_humidity;BME280_pressure;Samples;Min_cycle;Max_cycle;Signal;HPM_P1;HPM_P2
2023/05/01 00:01:05;;;;;;;0.00;0.00;;;9.70;99.90;;;;;;5050324;28;20050;-76
2023/05/01 00:03:35;;;;;;;0.00;0.00;;;9.70;99.90;;;;;;5045824;28;20048;-75
2023/05/01 00:06:04;;;;;;;0.00;0.00;;;9.60;99.90;;;;;;5044127;28;20098;-75
2023/05/01 00:08:34;;;;;;;0.00;0.00;;;9.70;99.90;;;;;;5049264;28;20072;-75
2023/05/01 00:11:04;;;;;;;0.00;0.00;;;9.60;99.90;;;;;;5059490;28;20032;-76
2023/05/01 00:13:30;;;;;;;0.00;0.00;;;9.60;99.90;;;;;;5047793;28;20099;-75
2023/05/01 00:16:01;;;;;;;0.00;0.00;;;9.50;99.90;;;;;;5043500;28;20032;-75
2023/05/01 00:18:33;;;;;;;0.00;0.00;;;9.50;99.90;;;;;;5065716;28;20032;-75
2023/05/01 00:20:59;;;;;;;0.00;0.00;;;9.50;99.90;;;;;;5047091;28;20482;-76
2023/05/01 00:23:37;;;;;;;;;;;9.40;99.90;;;;;;5062836;28;20112;-76
2023/05/01 00:26:06;;;;;;;0.00;0.00;;;9.40;99.90;;;;;;5051766;28;19908;-75
2023/05/01 00:28:32;;;;;;;0.00;0.00;;;9.30;99.90;;;;;;5046867;28;20489;-76
2023/05/01 00:30:57;;;;;;;0.00;0.00;;;9.40;99.90;;;;;;5060721;28;20032;-76
2023/05/01 00:33:30;;;;;;;0.00;0.00;;;9.30;99.90;;;;;;5048796;28;20628;-75
2023/05/01 00:36:00;;;;;;;0.00;0.00;;;9.30;99.90;;;;;;5065205;28;20037;-75
2023/05/01 00:38:31;;;;;;;0.00;0.00;;;9.30;99.90;;;;;;5052127;28;20025;-75
2023/05/01 00:41:00;;;;;;;0.00;0.00;;;9.30;99.90;;;;;;5063950;28;20399;-75
2023/05/01 00:43:28;;;;;;;0.00;0.00;;;9.20;99.90;;;;;;5048694;28;20496;-76
2023/05/01 00:45:59;;;;;;;0.00;0.00;;;9.20;99.90;;;;;;5059304;28;20705;-75
2023/05/01 00:48:30;;;;;;;0.00;0.00;;;9.20;99.90;;;;;;5067697;28;20024;-75
2023/05/01 00:51:03;;;;;;;0.00;0.00;;;9.20;99.90;;;;;;5047060;28;20029;-75
2023/05/01 00:53:35;;;;;;;0.00;0.00;;;9.20;99.90;;;;;;5048709;28;20028;-76
2023/05/01 00:56:05;;;;;;;0.00;0.00;;;9.20;99.90;;;;;;5056785;28;20021;-76
2023/05/01 00:58:41;;;;;;;0.00;0.00;;;9.20;99.90;;;;;;5067521;28;20092;-75
2023/05/01 01:01:08;;;;;;;0.00;0.00;;;9.00;99.90;;;;;;5065003;28;20017;-75
2023/05/01 01:03:38;;;;;;;0.00;0.00;;;9.00;99.90;;;;;;5062849;28;20024;-74
2023/05/01 01:06:12;;;;;;;0.00;0.00;;;9.00;99.90;;;;;;5061014;28;20093;-74
2023/05/01 01:08:59;;;;;;;0.00;0.00;;;9.00;99.90;;;;;;5053513;28;20035;-75
2023/05/01 01:11:37;;;;;;;0.00;0.00;;;9.00;99.90;;;;;;5056053;28;20021;-75
2023/05/01 01:14:14;;;;;;;0.00;0.00;;;9.00;99.90;;;;;;5041655;28;20021;-75
2023/05/01 01:17:03;;;;;;;;;;;9.00;99.90;;;;;;5045384;28;20100;-75
2023/05/01 01:19:49;;;;;;;;;;;9.00;99.90;;;;;;5049507;28;19920;-75
2023/05/01 01:22:20;;;;;;;0.00;0.00;;;8.90;99.90;;;;;;5054902;28;19908;-75
2023/05/01 01:24:55;;;;;;;0.00;0.00;;;8.90;99.90;;;;;;5059243;28;20193;-75
2023/05/01 01:27:24;;;;;;;0.00;0.00;;;8.90;99.90;;;;;;5043601;28;20028;-75
2023/05/01 01:30:10;;;;;;;0.00;0.00;;;8.90;99.90;;;;;;5054945;28;20029;-75
2023/05/01 01:33:20;;;;;;;0.00;0.00;;;8.80;99.90;;;;;;5042779;28;20021;-75
2023/05/01 01:35:57;;;;;;;0.00;0.00;;;8.80;99.90;;;;;;5045607;28;20033;-75
2023/05/01 01:38:51;;;;;;;0.00;0.00;;;8.80;99.90;;;;;;5050309;28;20031;-75
2023/05/01 01:41:32;;;;;;;0.00;0.00;;;8.80;99.90;;;;;;5045684;28;20025;-75
2023/05/01 01:44:19;;;;;;;0.00;0.00;;;8.70;99.90;;;;;;5045343;28;20009;-75
2023/05/01 01:46:51;;;;;;;0.00;0.00;;;8.70;99.90;;;;;;5038495;28;20089;-75
2023/05/01 01:49:28;;;;;;;0.00;0.00;;;8.70;99.90;;;;;;5045715;28;20033;-75
2023/05/01 01:52:01;;;;;;;0.00;0.00;;;8.70;99.90;;;;;;5045234;28;20098;-75
2023/05/01 01:54:37;;;;;;;0.00;0.00;;;8.70;99.90;;;;;;5063530;28;20032;-75
2023/05/01 01:57:04;;;;;;;0.00;0.00;;;8.70;99.90;;;;;;5043845;28;20069;-75
2023/05/01 01:59:33;;;;;;;0.00;0.00;;;8.60;99.90;;;;;;5046531;28;20020;-75
2023/05/01 02:02:02;;;;;;;0.00;0.00;;;8.60;99.90;;;;;;5045885;28;20028;-75
2023/05/01 02:04:30;;;;;;;0.00;0.00;;;8.60;99.90;;;;;;5045039;28;20017;-76
2023/05/01 02:06:58;;;;;;;0.00;0.00;;;8.50;99.90;;;;;;5045743;28;20040;-75
2023/05/01 02:09:28;;;;;;;0.00;0.00;;;8.50;99.90;;;;;;5047605;28;20024;-75
2023/05/01 02:11:55;;;;;;;0.00;0.00;;;8.50;99.90;;;;;;5047085;28;20082;-75
2023/05/01 02:14:25;;;;;;;0.00;0.00;;;8.60;99.90;;;;;;5048912;28;20108;-75
2023/05/01 02:16:52;;;;;;;0.00;0.00;;;8.60;99.90;;;;;;5046251;28;20612;-74
2023/05/01 02:19:20;;;;;;;0.00;0.00;;;8.60;99.90;;;;;;5061551;28;20032;-75
2023/05/01 02:21:48;;;;;;;1.85;0.32;;;8.50;99.90;;;;;;5047709;28;20025;-75
2023/05/01 02:24:17;;;;;;;0.00;0.00;;;8.50;99.90;;;;;;5042607;28;20049;-75
2023/05/01 02:27:12;;;;;;;0.00;0.00;;;8.50;99.90;;;;;;5063291;28;20732;-75
2023/05/01 02:29:52;;;;;;;0.00;0.00;;;8.50;99.90;;;;;;5044549;28;20582;-75
2023/05/01 02:32:18;;;;;;;0.00;0.00;;;8.40;99.90;;;;;;5058176;28;20033;-75
2023/05/01 02:34:49;;;;;;;0.00;0.00;;;8.40;99.90;;;;;;5059793;28;20046;-75
2023/05/01 02:37:16;;;;;;;0.38;0.38;;;8.40;99.90;;;;;;5044147;28;20043;-75
2023/05/01 02:39:42;;;;;;;;;;;8.40;99.90;;;;;;5065930;28;20602;-75
2023/05/01 02:42:12;;;;;;;0.00;0.00;;;8.40;99.90;;;;;;5042542;28;19947;-75
2023/05/01 02:45:03;;;;;;;0.00;0.00;;;8.40;99.90;;;;;;5046645;28;20020;-75
2023/05/01 02:47:32;;;;;;;0.00;0.00;;;8.40;99.90;;;;;;5057614;28;20028;-75
2023/05/01 02:50:00;;;;;;;0.00;0.00;;;8.40;99.90;;;;;;5045221;28;20396;-75
2023/05/01 02:52:28;;;;;;;0.00;0.00;;;8.30;99.90;;;;;;5061715;28;20025;-75
2023/05/01 02:54:59;;;;;;;0.00;0.00;;;8.30;99.90;;;;;;5044955;28;20629;-75
2023/05/01 02:57:26;;;;;;;0.00;0.00;;;8.20;99.90;;;;;;5051013;28;20031;-75
2023/05/01 02:59:52;;;;;;;;;;;8.20;99.90;;;;;;5042341;28;20025;-75
2023/05/01 03:02:18;;;;;;;0.00;0.00;;;8.10;99.90;;;;;;5070393;28;20054;-75
2023/05/01 03:04:43;;;;;;;0.00;0.00;;;8.10;99.90;;;;;;5065685;28;20684;-75
2023/05/01 03:07:13;;;;;;;0.00;0.00;;;8.00;99.90;;;;;;5063396;28;20267;-75
2023/05/01 03:09:45;;;;;;;0.00;0.00;;;7.90;99.90;;;;;;5049617;28;20517;-75
2023/05/01 03:12:14;;;;;;;0.00;0.00;;;7.90;99.90;;;;;;5064556;28;20425;-76
2023/05/01 03:14:45;;;;;;;0.00;0.00;;;7.90;99.90;;;;;;5052802;28;20111;-75
2023/05/01 03:17:12;;;;;;;0.00;0.00;;;7.80;99.90;;;;;;5065828;28;20021;-75
2023/05/01 03:19:42;;;;;;;0.00;0.00;;;7.80;99.90;;;;;;5065715;28;20398;-75
2023/05/01 03:22:10;;;;;;;0.00;0.00;;;7.70;99.90;;;;;;5049429;28;20618;-75
2023/05/01 03:24:43;;;;;;;0.00;0.00;;;7.70;99.90;;;;;;5047592;28;20110;-75
2023/05/01 03:27:10;;;;;;;0.10;0.10;;;7.70;99.90;;;;;;5048206;28;20056;-75
2023/05/01 03:29:36;;;;;;;0.00;0.00;;;7.70;99.90;;;;;;5055319;28;20014;-75
2023/05/01 03:32:05;;;;;;;0.00;0.00;;;7.60;99.90;;;;;;5048792;28;20027;-75
2023/05/01 03:34:34;;;;;;;0.00;0.00;;;7.70;99.90;;;;;;5070097;28;20020;-75
2023/05/01 03:37:01;;;;;;;0.00;0.00;;;7.60;99.90;;;;;;5062991;28;20024;-75
2023/05/01 03:39:30;;;;;;;0.03;0.03;;;7.60;99.90;;;;;;5066773;28;20055;-75
2023/05/01 03:41:57;;;;;;;1.88;0.20;;;7.60;99.90;;;;;;5064281;28;20021;-75
2023/05/01 03:44:29;;;;;;;0.00;0.00;;;7.60;99.90;;;;;;5047967;28;20407;-75
2023/05/01 03:46:55;;;;;;;0.00;0.00;;;7.70;99.90;;;;;;5049071;28;20025;-75
2023/05/01 03:49:29;;;;;;;0.00;0.00;;;7.60;99.90;;;;;;5049918;28;20822;-75
2023/05/01 03:51:57;;;;;;;0.00;0.00;;;7.60;99.90;;;;;;5054034;28;20043;-75
2023/05/01 03:54:24;;;;;;;0.00;0.00;;;7.70;99.90;;;;;;5045667;28;20033;-75
2023/05/01 03:56:50;;;;;;;0.00;0.00;;;7.70;99.90;;;;;;5064250;28;20451;-75
2023/05/01 03:59:17;;;;;;;0.00;0.00;;;7.70;99.90;;;;;;5068479;28;20041;-75
2023/05/01 04:01:52;;;;;;;;;;;7.80;99.90;;;;;;5066117;28;20033;-75
2023/05/01 04:04:18;;;;;;;0.00;0.00;;;7.80;99.90;;;;;;5053822;28;20485;-75
2023/05/01 04:06:50;;;;;;;;;;;7.90;99.90;;;;;;5046387;28;20036;-75
2023/05/01 04:09:19;;;;;;;0.00;0.00;;;8.00;99.90;;;;;;5050518;28;20149;-74
2023/05/01 04:11:46;;;;;;;0.00;0.00;;;8.00;99.90;;;;;;5047135;28;20176;-75
2023/05/01 04:14:14;;;;;;;0.00;0.00;;;8.10;99.90;;;;;;5050317;28;20098;-75
2023/05/01 04:16:52;;;;;;;0.00;0.00;;;8.10;99.90;;;;;;5065342;28;20051;-75
2023/05/01 04:19:18;;;;;;;0.00;0.00;;;8.20;99.90;;;;;;5048863;28;20109;-75
2023/05/01 04:21:45;;;;;;;0.00;0.00;;;8.20;99.90;;;;;;5048998;28;20151;-75
2023/05/01 04:24:12;;;;;;;0.03;0.03;;;8.40;99.90;;;;;;5069000;28;20025;-75
2023/05/01 04:26:43;;;;;;;0.00;0.00;;;8.50;99.90;;;;;;5044351;28;20401;-75
2023/05/01 04:29:10;;;;;;;0.00;0.00;;;8.60;99.90;;;;;;5060281;28;20107;-74
2023/05/01 04:31:36;;;;;;;0.00;0.00;;;8.70;99.90;;;;;;5054198;28;20096;-75
2023/05/01 04:34:06;;;;;;;;;;;8.90;99.90;;;;;;5047762;28;20432;-75
2023/05/01 04:36:32;;;;;;;0.00;0.00;;;9.00;99.90;;;;;;5060103;28;20003;-75
2023/05/01 04:39:02;;;;;;;0.00;0.00;;;9.10;99.90;;;;;;5053459;28;20104;-75
2023/05/01 04:41:31;;;;;;;0.00;0.00;;;9.40;99.90;;;;;;5052868;28;20481;-75
2023/05/01 04:44:01;;;;;;;0.00;0.00;;;9.80;99.90;;;;;;5044561;28;20023;-75
2023/05/01 04:46:32;;;;;;;0.00;0.00;;;10.40;99.90;;;;;;5048251;28;20108;-75
2023/05/01 04:48:59;;;;;;;0.00;0.00;;;11.00;99.90;;;;;;5067282;28;20031;-75
2023/05/01 04:51:25;;;;;;;0.00;0.00;;;11.50;99.90;;;;;;5065422;28;20637;-75
2023/05/01 04:53:53;;;;;;;0.00;0.00;;;11.30;99.90;;;;;;5050006;28;20033;-75
2023/05/01 04:56:27;;;;;;;0.00;0.00;;;11.70;99.90;;;;;;5050022;28;20028;-75
2023/05/01 04:58:56;;;;;;;0.17;0.17;;;11.70;99.90;;;;;;5050011;28;20086;-75
2023/05/01 05:01:22;;;;;;;0.00;0.00;;;11.40;99.90;;;;;;5065482;28;20488;-76
2023/05/01 05:03:49;;;;;;;;;;;11.30;99.90;;;;;;5064052;28;20382;-75
2023/05/01 05:06:14;;;;;;;0.00;0.00;;;11.40;99.90;;;;;;5046048;28;19908;-75
2023/05/01 05:08:41;;;;;;;0.00;0.00;;;11.30;99.90;;;;;;5049367;28;20021;-75
2023/05/01 05:11:11;;;;;;;0.00;0.00;;;11.40;99.90;;;;;;5063571;28;20021;-76
2023/05/01 05:13:39;;;;;;;0.00;0.00;;;11.30;99.90;;;;;;5043683;28;20028;-75
2023/05/01 05:16:05;;;;;;;0.25;0.25;;;11.30;99.90;;;;;;5067980;28;20029;-75
2023/05/01 05:18:31;;;;;;;0.00;0.00;;;11.20;99.90;;;;;;5044578;28;20116;-78
2023/05/01 05:21:07;;;;;;;0.00;0.00;;;11.10;99.90;;;;;;5068562;28;20116;-75
2023/05/01 05:23:40;;;;;;;0.00;0.00;;;10.80;99.90;;;;;;5045876;28;20556;-76
2023/05/01 05:26:06;;;;;;;0.00;0.00;;;10.90;99.90;;;;;;5048082;28;20029;-75
2023/05/01 05:28:31;;;;;;;0.00;0.00;;;11.10;99.90;;;;;;5067670;28;20029;-75
2023/05/01 05:30:57;;;;;;;0.00;0.00;;;11.40;99.90;;;;;;5061214;28;20028;-75
2023/05/01 05:33:28;;;;;;;0.00;0.00;;;11.60;99.90;;;;;;5045135;28;20025;-75
2023/05/01 05:35:54;;;;;;;0.00;0.00;;;12.40;99.90;;;;;;5069528;28;20025;-75
2023/05/01 05:38:21;;;;;;;0.10;0.10;;;13.20;98.20;;;;;;5059607;28;20029;-77
2023/05/01 05:40:47;;;;;;;;;;;14.10;96.80;;;;;;5065049;28;20535;-76
2023/05/01 05:43:14;;;;;;;0.00;0.00;;;14.90;94.60;;;;;;5047527;28;19939;-75
2023/05/01 05:45:41;;;;;;;0.00;0.00;;;15.40;92.60;;;;;;5049317;28;20029;-76
2023/05/01 05:48:07;;;;;;;;;;;16.00;90.90;;;;;;5061213;28;20036;-76
2023/05/01 05:50:36;;;;;;;0.03;0.03;;;16.80;87.60;;;;;;5067704;28;19908;-76
2023/05/01 05:53:02;;;;;;;0.00;0.00;;;17.20;83.50;;;;;;5068194;28;20021;-76
2023/05/01 05:55:37;;;;;;;0.00;0.00;;;16.90;82.80;;;;;;5066190;28;20035;-76
2023/05/01 05:58:04;;;;;;;0.00;0.00;;;16.30;82.50;;;;;;5047870;28;20809;-76
2023/05/01 06:00:34;;;;;;;0.00;0.00;;;16.50;82.00;;;;;;5062810;28;20013;-76
2023/05/01 06:02:59;;;;;;;0.00;0.00;;;16.50;81.80;;;;;;5061727;28;20028;-77
2023/05/01 06:05:28;;;;;;;0.00;0.00;;;17.20;81.20;;;;;;5064195;28;20028;-76
2023/05/01 06:07:55;;;;;;;0.10;0.10;;;17.60;79.10;;;;;;5048436;28;20724;-74
2023/05/01 06:10:26;;;;;;;0.00;0.00;;;19.00;73.90;;;;;;5044109;28;20070;-77
2023/05/01 06:12:57;;;;;;;0.00;0.00;;;17.80;74.40;;;;;;5061773;28;20029;-76
2023/05/01 06:15:24;;;;;;;0.00;0.00;;;17.50;74.90;;;;;;5061897;28;20063;-76
2023/05/01 06:17:51;;;;;;;0.00;0.00;;;17.60;75.80;;;;;;5060336;28;20031;-77
2023/05/01 06:20:16;;;;;;;0.40;0.40;;;17.60;74.20;;;;;;5062095;28;20119;-76
2023/05/01 06:22:42;;;;;;;0.00;0.00;;;17.80;73.70;;;;;;5061138;28;20113;-76
2023/05/01 06:25:08;;;;;;;0.30;0.17;;;17.80;74.10;;;;;;5046590;28;20074;-76
2023/05/01 06:27:36;;;;;;;0.00;0.00;;;17.80;72.70;;;;;;5060196;28;20104;-76
2023/05/01 06:30:12;;;;;;;0.35;0.08;;;17.40;73.00;;;;;;5055740;28;20078;-77
2023/05/01 06:32:38;;;;;;;0.00;0.00;;;17.50;74.20;;;;;;5048869;28;20183;-75
2023/05/01 06:35:04;;;;;;;0.00;0.00;;;19.70;70.00;;;;;;5065436;28;20575;-76
2023/05/01 06:37:30;;;;;;;0.00;0.00;;;21.80;65.90;;;;;;5063887;28;20143;-75
2023/05/01 06:40:07;;;;;;;0.28;0.28;;;22.10;61.40;;;;;;5065693;28;20025;-75
2023/05/01 06:42:33;;;;;;;0.00;0.00;;;22.50;60.80;;;;;;5063099;28;20508;-75
2023/05/01 06:44:59;;;;;;;0.10;0.10;;;22.90;59.10;;;;;;5050742;28;20031;-76
2023/05/01 06:47:33;;;;;;;0.00;0.00;;;22.80;58.00;;;;;;5045906;28;20025;-75
2023/05/01 06:49:59;;;;;;;0.03;0.03;;;21.90;59.00;;;;;;5049317;28;20044;-77
2023/05/01 06:52:25;;;;;;;0.00;0.00;;;22.40;58.10;;;;;;5045279;28;20021;-78
2023/05/01 06:54:51;;;;;;;0.00;0.00;;;22.60;57.40;;;;;;5045351;28;20063;-77
2023/05/01 06:57:16;;;;;;;0.00;0.00;;;22.30;57.90;;;;;;5049399;28;20397;-77
2023/05/01 06:59:42;;;;;;;0.25;0.25;;;21.50;58.60;;;;;;5065352;28;20032;-77
2023/05/01 07:02:07;;;;;;;0.00;0.00;;;21.10;59.30;;;;;;5053992;28;20025;-78
2023/05/01 07:04:34;;;;;;;0.00;0.00;;;20.50;60.10;;;;;;5056976;28;20021;-78
2023/05/01 07:07:01;;;;;;;0.80;0.20;;;21.00;60.10;;;;;;5067017;28;20060;-77
2023/05/01 07:09:30;;;;;;;0.35;0.22;;;21.50;59.60;;;;;;5051143;28;20028;-81
2023/05/01 07:11:58;;;;;;;0.03;0.03;;;21.90;58.50;;;;;;5053894;28;20086;-78
2023/05/01 07:14:26;;;;;;;0.00;0.00;;;22.20;57.50;;;;;;5052321;28;20025;-76
2023/05/01 07:16:51;;;;;;;0.00;0.00;;;22.00;57.90;;;;;;5066338;28;20134;-76
2023/05/01 07:19:17;;;;;;;0.00;0.00;;;21.70;58.40;;;;;;5070641;28;20603;-77
2023/05/01 07:21:52;;;;;;;0.47;0.22;;;22.00;58.20;;;;;;5069619;28;20151;-76
2023/05/01 07:24:20;;;;;;;0.00;0.00;;;21.80;58.10;;;;;;5051963;28;20473;-76
2023/05/01 07:26:45;;;;;;;0.00;0.00;;;22.00;58.10;;;;;;5065795;28;20058;-77
2023/05/01 07:29:24;;;;;;;0.00;0.00;;;22.00;57.90;;;;;;5064767;28;20841;-77
2023/05/01 07:31:50;;;;;;;0.00;0.00;;;22.30;57.60;;;;;;5047864;28;20017;-77
2023/05/01 07:34:18;;;;;;;0.00;0.00;;;23.30;56.20;;;;;;5054404;28;20058;-77
2023/05/01 07:36:50;;;;;;;0.00;0.00;;;23.50;56.10;;;;;;5066089;28;20800;-77
2023/05/01 07:39:16;;;;;;;0.00;0.00;;;24.10;55.10;;;;;;5048742;28;20067;-75
2023/05/01 07:41:44;;;;;;;0.10;0.10;;;22.30;56.40;;;;;;5050215;28;20387;-76
2023/05/01 07:44:12;;;;;;;0.00;0.00;;;23.00;55.30;;;;;;5068581;28;20024;-76
2023/05/01 07:46:40;;;;;;;0.00;0.00;;;22.90;54.80;;;;;;5043211;28;20032;-77
2023/05/01 07:49:16;;;;;;;0.00;0.00;;;23.70;55.10;;;;;;5052968;28;20800;-76
2023/05/01 07:51:42;;;;;;;0.00;0.00;;;24.20;53.60;;;;;;5051165;28;20021;-76
2023/05/01 07:54:09;;;;;;;0.00;0.00;;;24.00;53.10;;;;;;5051194;28;20051;-77
2023/05/01 07:56:34;;;;;;;;;;;24.20;53.80;;;;;;5054002;28;20026;-77
2023/05/01 07:59:00;;;;;;;0.00;0.00;;;25.30;53.30;;;;;;5067962;28;19983;-74
2023/05/01 08:01:29;;;;;;;0.00;0.00;;;25.60;51.70;;;;;;5058259;28;20074;-77
2023/05/01 08:03:55;;;;;;;0.00;0.00;;;27.00;50.60;;;;;;5060489;28;20124;-77
2023/05/01 08:06:21;;;;;;;0.00;0.00;;;27.80;49.60;;;;;;5063759;28;20304;-77
2023/05/01 08:08:47;;;;;;;0.08;0.08;;;27.00;50.30;;;;;;5054910;28;20024;-76
2023/05/01 08:11:15;;;;;;;0.00;0.00;;;27.50;49.50;;;;;;5062063;28;20024;-77
2023/05/01 08:13:46;;;;;;;0.00;0.00;;;27.50;49.40;;;;;;5053645;28;20478;-77
2023/05/01 08:16:15;;;;;;;0.17;0.17;;;27.30;50.00;;;;;;5046224;28;20366;-77
2023/05/01 08:18:41;;;;;;;0.00;0.00;;;25.10;52.30;;;;;;5050795;28;20025;-77
2023/05/01 08:21:09;;;;;;;0.00;0.00;;;25.40;52.90;;;;;;5046820;28;20036;-77
2023/05/01 08:23:37;;;;;;;0.00;0.00;;;25.70;53.40;;;;;;5046188;28;20936;-80
2023/05/01 08:26:06;;;;;;;0.22;0.22;;;26.90;51.60;;;;;;5061968;28;20466;-78
2023/05/01 08:28:36;;;;;;;0.00;0.00;;;27.50;50.50;;;;;;5067772;28;20106;-78
2023/05/01 08:31:02;;;;;;;0.00;0.00;;;27.00;50.60;;;;;;5065493;28;20016;-77
2023/05/01 08:33:34;;;;;;;0.00;0.00;;;26.10;51.90;;;;;;5046160;28;20070;-77
2023/05/01 08:36:02;;;;;;;0.00;0.00;;;25.90;52.80;;;;;;5062814;28;20025;-77
2023/05/01 08:38:29;;;;;;;0.00;0.00;;;25.30;53.60;;;;;;5049855;28;20020;-77
2023/05/01 08:41:00;;;;;;;1.10;0.20;;;25.80;53.60;;;;;;5061828;28;20108;-75
2023/05/01 08:43:35;;;;;;;0.00;0.00;;;25.60;52.80;;;;;;5067132;28;20100;-77
2023/05/01 08:46:05;;;;;;;0.47;0.47;;;25.60;52.30;;;;;;5046680;28;20086;-77
2023/05/01 08:48:42;;;;;;;0.00;0.00;;;25.60;53.00;;;;;;5047835;28;20873;-77
2023/05/01 08:51:12;;;;;;;0.17;0.15;;;25.00;54.20;;;;;;5051676;28;20116;-80
2023/05/01 08:53:50;;;;;;;0.90;0.15;;;25.80;53.10;;;;;;5045052;28;20021;-83
2023/05/01 08:56:20;;;;;;;0.00;0.00;;;26.30;53.20;;;;;;5070760;28;20551;-79
2023/05/01 08:58:49;;;;;;;0.00;0.00;;;25.80;53.40;;;;;;5062799;28;20028;-77
2023/05/01 09:01:17;;;;;;;0.00;0.00;;;25.50;53.60;;;;;;5060928;28;20024;-81
2023/05/01 09:03:44;;;;;;;0.00;0.00;;;25.30;55.00;;;;;;5060625;28;20033;-78
2023/05/01 09:06:11;;;;;;;0.00;0.00;;;25.80;55.20;;;;;;5053725;28;20024;-77
2023/05/01 09:08:40;;;;;;;0.00;0.00;;;26.20;54.10;;;;;;5062250;28;20128;-77
2023/05/01 09:11:07;;;;;;;0.00;0.00;;;25.90;54.30;;;;;;5068773;28;20028;-76
2023/05/01 09:13:34;;;;;;;0.00;0.00;;;25.00;55.30;;;;;;5046146;28;20071;-80
2023/05/01 09:16:04;;;;;;;1.13;0.20;;;25.00;56.30;;;;;;5048191;28;20025;-79
2023/05/01 09:18:35;;;;;;;2.45;0.80;;;25.90;54.70;;;;;;5067310;28;20017;-76
2023/05/01 09:21:11;;;;;;;0.00;0.00;;;26.30;54.20;;;;;;5047929;28;20119;-79
2023/05/01 09:23:40;;;;;;;0.00;0.00;;;26.60;54.60;;;;;;5057116;28;20063;-78
2023/05/01 09:26:08;;;;;;;0.00;0.00;;;26.50;53.50;;;;;;5048228;28;20017;-79
2023/05/01 09:28:46;;;;;;;0.10;0.10;;;25.20;56.10;;;;;;5047047;28;20052;-80
2023/05/01 09:31:28;;;;;;;0.00;0.00;;;26.60;55.80;;;;;;5045184;28;20949;-80
2023/05/01 09:34:02;;;;;;;0.00;0.00;;;25.80;55.00;;;;;;5063212;28;20086;-77
2023/05/01 09:36:31;;;;;;;0.00;0.00;;;25.70;55.40;;;;;;5060823;28;20020;-79
2023/05/01 09:39:01;;;;;;;0.00;0.00;;;26.90;54.60;;;;;;5059169;28;20674;-80
2023/05/01 09:41:30;;;;;;;0.00;0.00;;;28.00;53.40;;;;;;5053773;28;20033;-79
2023/05/01 09:43:57;;;;;;;0.00;0.00;;;27.10;52.90;;;;;;5046204;28;20013;-79
2023/05/01 09:46:26;;;;;;;0.00;0.00;;;28.10;51.70;;;;;;5050262;28;20021;-79
2023/05/01 09:48:57;;;;;;;0.00;0.00;;;27.10;53.50;;;;;;5047559;28;20569;-76
2023/05/01 09:51:33;;;;;;;0.25;0.25;;;27.10;52.80;;;;;;5047620;28;20406;-76
2023/05/01 09:54:04;;;;;;;0.00;0.00;;;25.90;54.00;;;;;;5046192;28;20070;-77
2023/05/01 09:56:33;;;;;;;0.00;0.00;;;26.60;54.40;;;;;;5061448;28;20082;-78
2023/05/01 09:59:19;;;;;;;0.00;0.00;;;26.70;53.60;;;;;;5063548;28;20098;-79
2023/05/01 10:01:48;;;;;;;0.00;0.00;;;27.60;53.00;;;;;;5067573;28;20028;-78
2023/05/01 10:04:38;;;;;;;0.10;0.05;;;26.50;53.20;;;;;;5042724;28;20025;-79
2023/05/01 10:07:13;;;;;;;0.00;0.00;;;27.20;54.10;;;;;;5048896;28;20373;-79
2023/05/01 10:09:44;;;;;;;0.00;0.00;;;26.90;53.60;;;;;;5062783;28;20039;-77
2023/05/01 10:12:09;;;;;;;0.10;0.10;;;26.70;53.40;;;;;;5061849;28;20029;-76
2023/05/01 10:14:52;;;;;;;0.00;0.00;;;26.10;54.00;;;;;;5043550;28;20035;-75
2023/05/01 10:17:20;;;;;;;0.00;0.00;;;26.30;54.80;;;;;;5043379;28;20048;-74
2023/05/01 10:19:50;;;;;;;;;;;27.40;54.40;;;;;;5045061;28;20032;-77
2023/05/01 10:22:20;;;;;;;0.00;0.00;;;26.70;54.60;;;;;;5043978;28;19920;-78
2023/05/01 10:24:51;;;;;;;0.00;0.00;;;26.60;54.10;;;;;;5043158;28;20512;-77
2023/05/01 10:27:21;;;;;;;0.28;0.17;;;28.10;53.20;;;;;;5041193;28;20017;-76
2023/05/01 10:29:49;;;;;;;0.00;0.00;;;27.50;53.70;;;;;;5064001;28;20052;-76
2023/05/01 10:32:16;;;;;;;0.05;0.05;;;26.80;53.80;;;;;;5041686;28;20017;-77
2023/05/01 10:35:03;;;;;;;0.20;0.03;;;25.90;54.70;;;;;;5042799;28;20037;-77
2023/05/01 10:37:57;;;;;;;0.20;0.20;;;25.90;56.60;;;;;;5049339;28;20025;-77
2023/05/01 10:40:42;;;;;;;0.00;0.00;;;26.10;56.00;;;;;;5044207;28;20044;-77
2023/05/01 10:43:31;;;;;;;0.00;0.00;;;26.80;55.60;;;;;;5060417;28;20025;-86
2023/05/01 10:46:20;;;;;;;0.65;0.20;;;27.90;53.30;;;;;;5045924;28;20025;-80
2023/05/01 10:48:53;;;;;;;0.00;0.00;;;28.10;52.70;;;;;;5051506;28;20363;-80
2023/05/01 10:51:26;;;;;;;0.00;0.00;;;26.80;54.10;;;;;;5068955;28;20359;-79
2023/05/01 10:54:16;;;;;;;0.00;0.00;;;26.00;55.50;;;;;;5059987;28;20105;-78
2023/05/01 10:56:57;;;;;;;0.00;0.00;;;25.70;56.20;;;;;;5065150;28;20047;-82
2023/05/01 10:59:24;;;;;;;0.00;0.00;;;24.30;58.70;;;;;;5063961;28;20013;-77
2023/05/01 11:02:19;;;;;;;0.00;0.00;;;22.30;61.60;;;;;;5061134;28;21068;-77
2023/05/01 11:04:52;;;;;;;0.00;0.00;;;20.60;65.40;;;;;;5042653;28;20029;-76
2023/05/01 11:07:20;;;;;;;0.00;0.00;;;20.20;67.20;;;;;;5047321;28;20024;-75
2023/05/01 11:09:53;;;;;;;0.00;0.00;;;20.30;67.90;;;;;;5061536;28;20032;-76
2023/05/01 11:12:45;;;;;;;0.15;0.08;;;20.40;67.70;;;;;;5061241;28;20020;-75
2023/05/01 11:15:29;;;;;;;0.30;0.30;;;20.10;67.30;;;;;;5047661;28;20020;-77
2023/05/01 11:17:56;;;;;;;0.00;0.00;;;20.10;68.40;;;;;;5057830;28;20048;-76
2023/05/01 11:20:24;;;;;;;0.00;0.00;;;20.00;67.70;;;;;;5068194;28;20525;-75
2023/05/01 11:23:00;;;;;;;1.65;0.10;;;20.00;68.40;;;;;;5049696;28;20039;-75
2023/05/01 11:25:32;;;;;;;0.00;0.00;;;19.70;69.40;;;;;;5064760;28;20500;-74
2023/05/01 11:28:02;;;;;;;0.00;0.00;;;19.90;70.70;;;;;;5068661;28;20125;-76
2023/05/01 11:30:41;;;;;;;0.00;0.00;;;20.40;69.10;;;;;;5053824;28;20021;-76
2023/05/01 11:33:20;;;;;;;0.00;0.00;;;20.50;68.40;;;;;;5046011;28;20067;-77
2023/05/01 11:35:56;;;;;;;0.00;0.00;;;20.00;69.60;;;;;;5072339;28;20032;-76
2023/05/01 11:38:28;;;;;;;0.00;0.00;;;20.00;70.50;;;;;;5054696;28;20017;-76
2023/05/01 11:40:57;;;;;;;0.00;0.00;;;19.60;70.40;;;;;;5060238;28;20028;-77
2023/05/01 11:43:27;;;;;;;0.00;0.00;;;19.80;70.90;;;;;;5054647;28;20027;-76
2023/05/01 11:46:01;;;;;;;0.00;0.00;;;20.00;71.00;;;;;;5051501;28;20047;-76
2023/05/01 11:48:28;;;;;;;0.00;0.00;;;19.60;71.40;;;;;;5063375;28;20713;-75
2023/05/01 11:50:54;;;;;;;0.00;0.00;;;19.60;71.70;;;;;;5070135;28;20033;-76
2023/05/01 11:53:20;;;;;;;0.43;0.43;;;19.80;72.00;;;;;;5068987;28;20029;-75
2023/05/01 11:55:48;;;;;;;0.10;0.10;;;19.90;71.30;;;;;;5065663;28;20032;-77
2023/05/01 11:58:14;;;;;;;0.00;0.00;;;19.70;71.10;;;;;;5051960;28;20078;-75
2023/05/01 12:00:42;;;;;;;0.17;0.13;;;19.40;71.70;;;;;;5059610;28;20496;-77
2023/05/01 12:03:12;;;;;;;0.03;0.03;;;19.40;72.40;;;;;;5055189;28;20496;-77
2023/05/01 12:05:41;;;;;;;0.00;0.00;;;19.50;72.50;;;;;;5048573;28;20025;-76
2023/05/01 12:08:12;;;;;;;0.00;0.00;;;19.60;72.80;;;;;;5068897;28;20381;-77
2023/05/01 12:10:41;;;;;;;0.17;0.08;;;19.80;72.80;;;;;;5056922;28;20108;-76
2023/05/01 12:13:15;;;;;;;0.10;0.10;;;19.60;72.60;;;;;;5064343;28;20036;-76
2023/05/01 12:15:45;;;;;;;0.05;0.05;;;19.40;73.10;;;;;;5069233;28;20056;-78
2023/05/01 12:18:14;;;;;;;0.10;0.10;;;19.30;74.00;;;;;;5065124;28;20021;-76
2023/05/01 12:20:43;;;;;;;0.00;0.00;;;19.30;74.80;;;;;;5062938;28;20021;-76
2023/05/01 12:23:17;;;;;;;0.00;0.00;;;19.50;74.40;;;;;;5055990;28;20133;-76
2023/05/01 12:25:44;;;;;;;0.00;0.00;;;19.50;74.40;;;;;;5063191;28;20028;-76
2023/05/01 12:28:18;;;;;;;0.03;0.00;;;19.50;72.40;;;;;;5049716;28;20374;-76
2023/05/01 12:30:45;;;;;;;0.00;0.00;;;19.50;72.30;;;;;;5073633;28;20040;-77
2023/05/01 12:33:17;;;;;;;0.00;0.00;;;19.90;71.40;;;;;;5043386;28;20013;-76
2023/05/01 12:35:45;;;;;;;0.38;0.20;;;20.30;72.10;;;;;;5069842;28;20025;-76
2023/05/01 12:38:19;;;;;;;0.10;0.10;;;20.20;72.40;;;;;;5052481;28;20028;-76
2023/05/01 12:41:10;;;;;;;0.00;0.00;;;19.70;73.80;;;;;;5054315;28;20394;-76
2023/05/01 12:43:37;;;;;;;0.00;0.00;;;20.00;74.30;;;;;;5064346;28;20033;-76
2023/05/01 12:46:05;;;;;;;0.00;0.00;;;19.90;72.90;;;;;;5056804;28;20016;-76
2023/05/01 12:48:33;;;;;;;0.00;0.00;;;19.80;73.70;;;;;;5072259;28;20729;-77
2023/05/01 12:51:07;;;;;;;0.00;0.00;;;19.90;72.30;;;;;;5072743;28;20020;-77
2023/05/01 12:53:33;;;;;;;0.00;0.00;;;20.00;72.20;;;;;;5071200;28;20389;-77
2023/05/01 12:56:02;;;;;;;0.00;0.00;;;19.80;71.50;;;;;;5050326;28;20035;-76
2023/05/01 12:58:36;;;;;;;0.00;0.00;;;19.90;72.10;;;;;;5072340;28;20075;-78
2023/05/01 13:01:11;;;;;;;0.00;0.00;;;19.80;73.60;;;;;;5071978;28;20908;-77
2023/05/01 13:03:42;;;;;;;0.03;0.00;;;20.00;73.80;;;;;;5075021;28;20074;-77
2023/05/01 13:06:15;;;;;;;0.00;0.00;;;19.80;73.80;;;;;;5056944;28;20032;-77
2023/05/01 13:08:43;;;;;;;0.00;0.00;;;19.80;74.30;;;;;;5071270;28;20395;-77
2023/05/01 13:11:15;;;;;;;0.00;0.00;;;20.10;73.60;;;;;;5053860;28;20025;-77